Time;durP1;ratioP1;P1;durP2;ratioP2;P2;SDS_P1;SDS_P2;PMS_P1;PMS_P2;Temp;Humidity;BMP_temperature;BMP_pressure;BME280_temperature;BME280_humidity;BME280_pressure;Samples;Min_cycle;Max_cycle;Signal;HPM_P1;HPM_P2
2023/10/28 00:01:55;;;;;;;0.00;0.00;;;;;;;9.55;100.00;99359.28;5106685;28;20031;-38
2023/10/28 00:04:22;;;;;;;0.00;0.00;;;;;;;9.54;100.00;99361.16;5111717;28;20409;-39
2023/10/28 00:06:47;;;;;;;0.00;0.00;;;;;;;9.53;100.00;99364.03;5111782;28;20027;-38
2023/10/28 00:09:13;;;;;;;0.00;0.00;;;;;;;9.51;100.00;99358.91;5111535;28;20367;-39
2023/10/28 00:11:38;;;;;;;0.00;0.00;;;;;;;9.56;100.00;99360.97;5112713;28;20028;-40
2023/10/28 00:14:03;;;;;;;0.00;0.00;;;;;;;9.54;100.00;99366.53;5112639;28;20038;-40
2023/10/28 00:16:29;;;;;;;0.00;0.00;;;;;;;9.54;100.00;99371.91;5112857;28;20024;-39
2023/10/28 00:18:54;;;;;;;0.00;0.00;;;;;;;9.58;100.00;99377.66;5112296;28;20020;-40
2023/10/28 00:21:21;;;;;;;0.00;0.00;;;;;;;9.59;100.00;99376.66;5111509;28;20028;-39
2023/10/28 00:23:46;;;;;;;0.00;0.00;;;;;;;9.55;100.00;99375.41;5110600;28;20020;-40
2023/10/28 00:26:12;;;;;;;0.00;0.00;;;;;;;9.56;100.00;99379.78;5111158;28;20031;-40
2023/10/28 00:28:39;;;;;;;0.00;0.00;;;;;;;9.59;100.00;99373.97;5113862;28;20027;-39
2023/10/28 00:31:05;;;;;;;0.00;0.00;;;;;;;9.54;100.00;99382.66;5114644;28;20111;-39
2023/10/28 00:33:30;;;;;;;0.00;0.00;;;;;;;9.52;100.00;99389.25;5115430;28;20508;-40
2023/10/28 00:35:56;;;;;;;0.00;0.00;;;;;;;9.51;100.00;99382.25;5112655;28;20039;-41
2023/10/28 00:38:25;;;;;;;0.00;0.00;;;;;;;9.48;100.00;99386.19;5111485;28;20028;-39
2023/10/28 00:40:50;;;;;;;0.00;0.00;;;;;;;9.45;100.00;99390.13;5111406;28;20488;-41
2023/10/28 00:43:24;;;;;;;0.00;0.00;;;;;;;9.48;100.00;99388.88;5113265;28;20020;-40
2023/10/28 00:45:49;;;;;;;0.00;0.00;;;;;;;9.44;100.00;99383.06;5117668;28;20030;-41
2023/10/28 00:48:15;;;;;;;0.00;0.00;;;;;;;9.42;100.00;99385.13;5099634;28;20067;-40
2023/10/28 00:50:41;;;;;;;0.00;0.00;;;;;;;9.44;100.00;99388.44;5115780;28;20122;-40
2023/10/28 00:53:06;;;;;;;0.00;0.00;;;;;;;9.49;100.00;99389.69;5111055;28;20106;-39
2023/10/28 00:55:32;;;;;;;0.00;0.00;;;;;;;9.50;100.00;99388.66;5111163;28;20035;-39
2023/10/28 00:57:58;;;;;;;0.00;0.00;;;;;;;9.51;100.00;99382.25;5110181;28;20106;-39
2023/10/28 01:00:23;;;;;;;0.00;0.00;;;;;;;9.49;100.00;99374.41;5110567;28;20067;-38
2023/10/28 01:02:48;;;;;;;0.00;0.00;;;;;;;9.50;100.00;99376.03;5110885;28;20453;-40
2023/10/28 01:05:15;;;;;;;0.00;0.00;;;;;;;9.51;100.00;99376.88;5111030;28;20063;-39
2023/10/28 01:07:45;;;;;;;0.00;0.00;;;;;;;9.49;100.00;99373.56;5110743;28;20028;-40
2023/10/28 01:10:11;;;;;;;0.00;0.00;;;;;;;9.50;100.00;99375.22;5110794;28;20084;-39
2023/10/28 01:12:37;;;;;;;0.00;0.00;;;;;;;9.48;100.00;99371.91;5110995;28;20015;-39
2023/10/28 01:15:03;;;;;;;0.00;0.00;;;;;;;9.51;100.00;99371.50;5110526;28;20031;-40
2023/10/28 01:17:29;;;;;;;0.00;0.00;;;;;;;9.54;100.00;99360.34;5110386;28;20019;-40
2023/10/28 01:19:56;;;;;;;0.00;0.00;;;;;;;9.57;100.00;99358.06;5109530;28;20031;-38
2023/10/28 01:22:23;;;;;;;0.00;0.00;;;;;;;9.59;100.00;99363.22;5111025;28;20114;-39
2023/10/28 01:24:52;;;;;;;0.00;0.00;;;;;;;9.63;100.00;99364.44;5110933;28;20081;-40
2023/10/28 01:27:18;;;;;;;0.00;0.00;;;;;;;9.63;100.00;99370.63;5090900;28;20032;-40
2023/10/28 01:29:45;;;;;;;0.00;0.00;;;;;;;9.67;100.00;99360.31;5097185;28;20527;-40
2023/10/28 01:32:12;;;;;;;0.00;0.00;;;;;;;9.68;100.00;99361.94;5111034;28;20034;-40
2023/10/28 01:34:54;;;;;;;0.00;0.00;;;;;;;9.73;100.00;99370.19;5111038;28;20320;-40
2023/10/28 01:37:20;;;;;;;0.00;0.00;;;;;;;9.74;100.00;99377.22;5110810;28;20031;-39
2023/10/28 01:39:50;;;;;;;0.00;0.00;;;;;;;9.75;100.00;99370.81;5110811;28;20019;-39
2023/10/28 01:42:16;;;;;;;0.00;0.00;;;;;;;9.75;100.00;99378.88;5110379;28;20028;-40
2023/10/28 01:44:41;;;;;;;0.00;0.00;;;;;;;9.76;100.00;99372.44;5110027;28;20032;-40
2023/10/28 01:47:08;;;;;;;0.00;0.00;;;;;;;9.76;100.00;99369.75;5110726;28;20016;-40
2023/10/28 01:49:34;;;;;;;0.00;0.00;;;;;;;9.76;100.00;99366.25;5113488;28;20034;-39
2023/10/28 01:52:00;;;;;;;0.00;0.00;;;;;;;9.77;100.00;99368.75;5094448;28;20111;-39
2023/10/28 01:54:25;;;;;;;0.00;0.00;;;;;;;9.74;100.00;99374.53;5111447;28;20051;-40
2023/10/28 01:56:51;;;;;;;0.00;0.00;;;;;;;9.72;100.00;99368.53;5110834;28;20296;-39
2023/10/28 01:59:16;;;;;;;0.00;0.00;;;;;;;9.74;100.00;99361.09;5111173;28;20036;-39
2023/10/28 02:01:43;;;;;;;0.00;0.00;;;;;;;9.76;100.00;99372.44;5110823;28;20103;-40
2023/10/28 02:04:08;;;;;;;0.00;0.00;;;;;;;9.77;100.00;99366.03;5110515;28;20036;-40
2023/10/28 02:06:33;;;;;;;0.00;0.00;;;;;;;9.74;100.00;99360.25;5110869;28;20500;-39
2023/10/28 02:08:59;;;;;;;0.00;0.00;;;;;;;9.77;100.00;99355.31;5110680;28;20259;-40
2023/10/28 02:11:24;;;;;;;0.00;0.00;;;;;;;9.74;100.00;99361.09;5110566;28;20024;-39
2023/10/28 02:13:49;;;;;;;0.00;0.00;;;;;;;9.70;100.00;99351.81;5110196;28;20033;-39
2023/10/28 02:16:15;;;;;;;0.00;0.00;;;;;;;9.74;100.00;99355.72;5112348;28;20042;-38
2023/10/28 02:18:40;;;;;;;0.00;0.00;;;;;;;9.74;100.00;99353.03;5113841;28;20110;-40
2023/10/28 02:21:06;;;;;;;0.00;0.00;;;;;;;9.76;100.00;99356.31;5120939;28;20095;-39
2023/10/28 02:23:31;;;;;;;0.00;0.00;;;;;;;9.74;100.00;99349.50;5121517;28;20035;-38
2023/10/28 02:25:56;;;;;;;0.00;0.00;;;;;;;9.78;100.00;99348.88;5121838;28;20507;-40
2023/10/28 02:28:22;;;;;;;0.00;0.00;;;;;;;9.80;100.00;99346.81;5114849;28;20485;-39
2023/10/28 02:30:47;;;;;;;0.00;0.00;;;;;;;9.80;100.00;99349.50;5115193;28;20036;-41
2023/10/28 02:33:12;;;;;;;0.00;0.00;;;;;;;9.78;100.00;99346.19;5116756;28;20020;-39
2023/10/28 02:35:38;;;;;;;0.00;0.00;;;;;;;9.77;100.00;99339.19;5117797;28;20019;-39
2023/10/28 02:38:03;;;;;;;0.00;0.00;;;;;;;9.74;100.00;99341.44;5117743;28;20031;-39
2023/10/28 02:40:28;;;;;;;0.00;0.00;;;;;;;9.73;100.00;99343.31;5117319;28;20023;-39
2023/10/28 02:42:54;;;;;;;0.00;0.00;;;;;;;9.72;100.00;99333.63;5114679;28;20122;-39
2023/10/28 02:45:19;;;;;;;0.00;0.00;;;;;;;9.72;100.00;99336.31;5112948;28;20030;-39
2023/10/28 02:47:45;;;;;;;0.00;0.00;;;;;;;9.70;100.00;99335.69;5113623;28;20062;-39
2023/10/28 02:50:10;;;;;;;0.00;0.00;;;;;;;9.68;100.00;99338.56;5113245;28;20028;-39
2023/10/28 02:52:35;;;;;;;0.00;0.00;;;;;;;9.68;100.00;99329.69;5113793;28;20027;-39
2023/10/28 02:55:01;;;;;;;0.00;0.00;;;;;;;9.71;100.00;99340.00;5113506;28;20027;-39
2023/10/28 02:57:27;;;;;;;0.00;0.00;;;;;;;9.71;100.00;99339.19;5112910;28;20023;-40
2023/10/28 02:59:52;;;;;;;0.00;0.00;;;;;;;9.78;100.00;99345.38;5113325;28;20065;-40
2023/10/28 03:02:18;;;;;;;0.00;0.00;;;;;;;9.77;100.00;99347.25;5113647;28;20081;-40
2023/10/28 03:04:43;;;;;;;0.00;0.00;;;;;;;9.80;100.00;99346.81;5114516;28;20115;-40
2023/10/28 03:07:09;;;;;;;0.00;0.00;;;;;;;9.84;100.00;99345.31;5113745;28;20418;-39
2023/10/28 03:09:34;;;;;;;0.00;0.00;;;;;;;9.79;100.00;99352.38;5114487;28;20059;-39
2023/10/28 03:11:59;;;;;;;0.00;0.00;;;;;;;9.84;100.00;99361.44;5113401;28;20026;-40
2023/10/28 03:14:25;;;;;;;0.00;0.00;;;;;;;9.88;100.00;99357.31;5112765;28;20032;-40
2023/10/28 03:16:51;;;;;;;0.00;0.00;;;;;;;9.85;100.00;99348.88;5112786;28;20057;-40
2023/10/28 03:19:16;;;;;;;0.00;0.00;;;;;;;9.81;100.00;99351.13;5113380;28;20036;-40
2023/10/28 03:21:41;;;;;;;0.00;0.00;;;;;;;9.78;100.00;99340.81;5094552;28;20121;-40
2023/10/28 03:24:07;;;;;;;0.00;0.00;;;;;;;9.78;100.00;99348.88;5112842;28;20028;-40
2023/10/28 03:26:32;;;;;;;0.00;0.00;;;;;;;9.80;100.00;99341.44;5114187;28;20106;-41
2023/10/28 03:28:59;;;;;;;0.00;0.00;;;;;;;9.84;100.00;99329.22;5114650;28;20019;-41
2023/10/28 03:31:25;;;;;;;0.00;0.00;;;;;;;9.74;100.00;99334.25;5113245;28;20093;-40
2023/10/28 03:33:50;;;;;;;0.00;0.00;;;;;;;9.79;100.00;99318.28;5112594;28;20484;-40
2023/10/28 03:36:16;;;;;;;0.00;0.00;;;;;;;9.81;100.00;99320.75;5112757;28;20051;-40
2023/10/28 03:38:41;;;;;;;0.00;0.00;;;;;;;9.82;100.00;99309.81;5113602;28;20106;-40
2023/10/28 03:41:07;;;;;;;0.00;0.00;;;;;;;9.81;100.00;99312.69;5112855;28;20059;-41
2023/10/28 03:43:32;;;;;;;0.00;0.00;;;;;;;9.85;100.00;99309.38;5113095;28;20043;-41
2023/10/28 03:45:58;;;;;;;0.00;0.00;;;;;;;9.85;100.00;99309.38;5112474;28;20466;-38
2023/10/28 03:48:23;;;;;;;0.00;0.00;;;;;;;9.83;100.00;99316.00;5112378;28;20559;-39
2023/10/28 03:50:57;;;;;;;0.00;0.00;;;;;;;9.82;100.00;99309.81;5111922;28;20380;-40
2023/10/28 03:53:23;;;;;;;0.00;0.00;;;;;;;9.81;100.00;99313.50;5113328;28;20161;-40
2023/10/28 03:55:48;;;;;;;0.00;0.00;;;;;;;9.83;100.00;99311.44;5113747;28;20023;-38
2023/10/28 03:58:13;;;;;;;0.00;0.00;;;;;;;9.89;100.00;99301.69;5112357;28;20028;-40
2023/10/28 04:00:39;;;;;;;0.00;0.00;;;;;;;9.92;100.00;99303.94;5117289;27;20023;-39
2023/10/28 04:03:04;;;;;;;0.00;0.00;;;;;;;9.89;100.00;99301.69;5093402;28;20043;-39
2023/10/28 04:05:29;;;;;;;0.00;0.00;;;;;;;9.91;100.00;99301.50;5112120;28;20035;-41
2023/10/28 04:07:55;;;;;;;0.00;0.00;;;;;;;9.91;100.00;99296.13;5111286;28;20398;-40
2023/10/28 04:10:21;;;;;;;0.00;0.00;;;;;;;9.94;100.00;99296.50;5111116;28;20538;-39
2023/10/28 04:12:47;;;;;;;0.00;0.00;;;;;;;9.98;100.00;99302.25;5111587;28;20035;-39
2023/10/28 04:15:13;;;;;;;0.00;0.00;;;;;;;9.97;100.00;99300.63;5111900;28;20433;-39
2023/10/28 04:17:39;;;;;;;0.00;0.00;;;;;;;10.02;100.00;99301.63;5089812;28;20060;-39
2023/10/28 04:20:06;;;;;;;0.00;0.00;;;;;;;9.96;100.00;99293.63;5099399;28;20073;-39
2023/10/28 04:22:32;;;;;;;0.00;0.00;;;;;;;9.97;100.00;99296.06;5104369;28;20385;-39
2023/10/28 04:24:57;;;;;;;0.00;0.00;;;;;;;9.94;100.00;99291.13;5110043;28;20019;-39
2023/10/28 04:27:23;;;;;;;0.00;0.00;;;;;;;9.94;100.00;99296.50;5109355;28;20398;-39
2023/10/28 04:29:50;;;;;;;0.00;0.00;;;;;;;9.97;100.00;99296.06;5109639;28;20038;-40
2023/10/28 04:32:17;;;;;;;0.00;0.00;;;;;;;10.01;100.00;99297.28;5108962;28;20316;-41
2023/10/28 04:34:43;;;;;;;0.00;0.00;;;;;;;10.06;100.00;99305.53;5107514;28;20031;-40
2023/10/28 04:37:08;;;;;;;0.00;0.00;;;;;;;10.02;100.00;99287.38;5109842;28;20561;-39
2023/10/28 04:39:34;;;;;;;0.00;0.00;;;;;;;10.03;100.00;99280.94;5113234;28;20066;-42
2023/10/28 04:41:59;;;;;;;0.00;0.00;;;;;;;10.02;100.00;99293.56;5112381;28;20055;-41
2023/10/28 04:44:24;;;;;;;0.00;0.00;;;;;;;10.08;100.00;99286.50;5112428;28;20041;-41
2023/10/28 04:46:50;;;;;;;0.00;0.00;;;;;;;10.05;100.00;99282.38;5109554;28;20051;-39
2023/10/28 04:49:15;;;;;;;0.00;0.00;;;;;;;10.06;100.00;99277.84;5091870;28;20381;-40
2023/10/28 04:51:40;;;;;;;0.00;0.00;;;;;;;10.10;100.00;99279.03;5109575;28;20050;-39
2023/10/28 04:54:06;;;;;;;0.00;0.00;;;;;;;10.06;100.00;99285.91;5108801;28;20039;-40
2023/10/28 04:56:32;;;;;;;0.00;0.00;;;;;;;10.08;100.00;99275.72;5109698;28;20079;-39
2023/10/28 04:58:57;;;;;;;0.00;0.00;;;;;;;10.11;100.00;99273.47;5109363;28;20023;-41
2023/10/28 05:01:23;;;;;;;0.00;0.00;;;;;;;10.13;100.00;99273.22;5109144;28;20043;-40
2023/10/28 05:03:49;;;;;;;0.00;0.00;;;;;;;10.17;100.00;99271.75;5111102;28;20583;-40
2023/10/28 05:06:15;;;;;;;0.00;0.00;;;;;;;10.19;100.00;99266.16;5111851;28;20043;-39
2023/10/28 05:08:40;;;;;;;0.00;0.00;;;;;;;10.14;100.00;99274.03;5109611;28;20045;-39
2023/10/28 05:11:06;;;;;;;0.00;0.00;;;;;;;10.16;100.00;99267.41;5109485;28;20027;-39
2023/10/28 05:13:31;;;;;;;0.00;0.00;;;;;;;10.17;100.00;99269.06;5109828;28;20036;-40
2023/10/28 05:15:56;;;;;;;0.00;0.00;;;;;;;10.17;100.00;99271.75;5108299;28;20140;-40
2023/10/28 05:18:23;;;;;;;0.00;0.00;;;;;;;10.19;100.00;99267.00;5109312;28;20576;-40
2023/10/28 05:20:48;;;;;;;0.00;0.00;;;;;;;10.21;100.00;99272.94;5108192;28;20500;-39
2023/10/28 05:23:13;;;;;;;0.00;0.00;;;;;;;10.19;100.00;99261.63;5109262;28;20039;-40
2023/10/28 05:25:39;;;;;;;0.00;0.00;;;;;;;10.27;100.00;99274.81;5109814;28;20027;-39
2023/10/28 05:28:04;;;;;;;0.00;0.00;;;;;;;10.23;100.00;99262.81;5101561;28;20391;-41
2023/10/28 05:30:29;;;;;;;0.00;0.00;;;;;;;10.28;100.00;99265.69;5111342;28;20032;-41
2023/10/28 05:32:55;;;;;;;0.00;0.00;;;;;;;10.31;100.00;99259.88;5114996;28;20043;-40
2023/10/28 05:35:20;;;;;;;0.00;0.00;;;;;;;10.31;100.00;99264.44;5112736;28;20122;-40
2023/10/28 05:37:45;;;;;;;0.00;0.00;;;;;;;10.31;100.00;99261.75;5114835;28;20092;-41
2023/10/28 05:40:13;;;;;;;0.00;0.00;;;;;;;10.32;100.00;99258.00;5112331;28;20027;-41
2023/10/28 05:42:38;;;;;;;0.00;0.00;;;;;;;10.30;100.00;99255.56;5113336;28;20110;-41
2023/10/28 05:45:05;;;;;;;0.00;0.00;;;;;;;10.33;100.00;99256.97;5111887;28;20110;-40
2023/10/28 05:47:30;;;;;;;0.00;0.00;;;;;;;10.32;100.00;99258.00;5108076;28;20338;-41
2023/10/28 05:49:55;;;;;;;0.00;0.00;;;;;;;10.32;100.00;99260.69;5110333;28;20473;-41
2023/10/28 05:52:21;;;;;;;0.00;0.00;;;;;;;10.37;100.00;99258.19;5114760;28;20617;-40
2023/10/28 05:54:46;;;;;;;0.00;0.00;;;;;;;10.34;100.00;99258.63;5114266;28;20535;-39
2023/10/28 05:57:11;;;;;;;0.00;0.00;;;;;;;10.32;100.00;99261.53;5114132;28;20466;-40
2023/10/28 05:59:39;;;;;;;0.00;0.00;;;;;;;10.38;100.00;99259.03;5113358;28;20133;-40
2023/10/28 06:02:04;;;;;;;0.00;0.00;;;;;;;10.35;100.00;99262.13;5095789;28;20028;-41
2023/10/28 06:04:31;;;;;;;0.00;0.00;;;;;;;10.29;100.00;99262.00;5113506;27;20050;-40
2023/10/28 06:06:57;;;;;;;0.00;0.00;;;;;;;10.30;100.00;99268.19;5114224;28;20076;-40
2023/10/28 06:09:23;;;;;;;0.00;0.00;;;;;;;10.29;100.00;99267.38;5106885;28;20023;-40
2023/10/28 06:11:50;;;;;;;0.00;0.00;;;;;;;10.33;100.00;99273.94;5113792;28;20032;-40
2023/10/28 06:14:15;;;;;;;0.00;0.00;;;;;;;10.31;100.00;99265.25;5110086;28;20131;-39
2023/10/28 06:16:41;;;;;;;0.00;0.00;;;;;;;10.27;100.00;99274.81;5114210;28;20122;-40
2023/10/28 06:19:07;;;;;;;0.00;0.00;;;;;;;10.28;100.00;99278.31;5110096;28;20818;-39
2023/10/28 06:21:33;;;;;;;0.00;0.00;;;;;;;10.27;100.00;99277.50;5114830;28;20027;-40
2023/10/28 06:23:58;;;;;;;0.00;0.00;;;;;;;10.28;100.00;99276.44;5114119;28;20015;-40
2023/10/28 06:26:24;;;;;;;0.00;0.00;;;;;;;10.30;100.00;99278.94;5114349;28;20069;-38
2023/10/28 06:28:49;;;;;;;0.00;0.00;;;;;;;10.24;100.00;99274.38;5113749;28;20039;-39
2023/10/28 06:31:15;;;;;;;0.00;0.00;;;;;;;10.26;100.00;99267.75;5114298;28;20046;-41
2023/10/28 06:33:40;;;;;;;0.00;0.00;;;;;;;10.23;100.00;99278.94;5114624;28;20016;-40
2023/10/28 06:36:07;;;;;;;0.00;0.00;;;;;;;10.19;100.00;99280.44;5114477;28;20427;-41
2023/10/28 06:38:32;;;;;;;0.00;0.00;;;;;;;10.14;100.00;99284.78;5115311;28;20102;-40
2023/10/28 06:40:57;;;;;;;0.00;0.00;;;;;;;10.14;100.00;99291.00;5116122;28;20063;-38
2023/10/28 06:43:23;;;;;;;0.00;0.00;;;;;;;10.15;100.00;99286.47;5118314;28;20043;-40
2023/10/28 06:45:48;;;;;;;0.00;0.00;;;;;;;10.15;100.00;99295.34;5117405;28;20034;-40
2023/10/28 06:48:15;;;;;;;0.00;0.00;;;;;;;10.18;100.00;99286.00;5116393;28;20110;-39
2023/10/28 06:50:40;;;;;;;0.00;0.00;;;;;;;10.16;100.00;99285.41;5113366;28;20369;-38
2023/10/28 06:53:06;;;;;;;0.00;0.00;;;;;;;10.15;100.00;99287.28;5113360;28;20474;-40
2023/10/28 06:55:31;;;;;;;0.00;0.00;;;;;;;10.16;100.00;99296.16;5113001;28;20454;-39
2023/10/28 06:57:58;;;;;;;0.00;0.00;;;;;;;10.19;100.00;99293.88;5110091;28;20030;-39
2023/10/28 07:00:27;;;;;;;0.00;0.00;;;;;;;10.24;100.00;99295.88;5102439;28;20507;-40
2023/10/28 07:02:53;;;;;;;0.00;0.00;;;;;;;10.24;100.00;99294.06;5090499;28;20040;-40
2023/10/28 07:05:18;;;;;;;0.00;0.00;;;;;;;10.28;100.00;99289.91;5107170;28;20470;-39
2023/10/28 07:07:44;;;;;;;0.00;0.00;;;;;;;10.32;100.00;99296.50;5106393;28;20045;-39
2023/10/28 07:10:14;;;;;;;0.00;0.00;;;;;;;10.32;100.00;99298.34;5115457;28;20480;-39
2023/10/28 07:12:40;;;;;;;0.00;0.00;;;;;;;10.28;100.00;99297.97;5118296;28;20032;-40
2023/10/28 07:15:09;;;;;;;0.00;0.00;;;;;;;10.30;100.00;99303.97;5107387;28;20059;-40
2023/10/28 07:17:34;;;;;;;0.00;0.00;;;;;;;10.32;100.00;99301.88;5104047;28;20114;-40
2023/10/28 07:19:59;;;;;;;0.00;0.00;;;;;;;10.31;100.00;99302.91;5112089;28;20186;-40
2023/10/28 07:22:25;;;;;;;0.00;0.00;;;;;;;10.30;100.00;99303.97;5111302;28;20034;-41
2023/10/28 07:24:51;;;;;;;0.00;0.00;;;;;;;10.33;100.00;99305.38;5111295;28;20038;-39
2023/10/28 07:27:18;;;;;;;0.00;0.00;;;;;;;10.38;100.00;99307.44;5111780;28;20032;-40
2023/10/28 07:29:43;;;;;;;0.00;0.00;;;;;;;10.39;100.00;99307.19;5092653;28;20093;-38
2023/10/28 07:32:09;;;;;;;0.00;0.00;;;;;;;10.41;100.00;99313.19;5110086;28;20051;-39
2023/10/28 07:34:34;;;;;;;0.00;0.00;;;;;;;10.45;100.00;99314.41;5101746;28;20135;-39
2023/10/28 07:37:00;;;;;;;0.00;0.00;;;;;;;10.53;100.00;99307.91;5110357;28;20034;-39
2023/10/28 07:39:26;;;;;;;0.00;0.00;;;;;;;10.50;100.00;99316.41;5110636;28;20039;-40
2023/10/28 07:41:53;;;;;;;0.00;0.00;;;;;;;10.51;100.00;99307.31;5108926;28;20028;-39
2023/10/28 07:44:18;;;;;;;0.00;0.00;;;;;;;10.50;100.00;99314.56;5110733;28;20414;-39
2023/10/28 07:46:44;;;;;;;0.00;0.00;;;;;;;10.53;100.00;99316.81;5111739;28;20034;-37
2023/10/28 07:49:10;;;;;;;0.00;0.00;;;;;;;10.58;100.00;99313.47;5113552;28;20493;-40
2023/10/28 07:51:36;;;;;;;0.00;0.00;;;;;;;10.61;100.00;99315.72;5113865;28;20061;-39
2023/10/28 07:54:02;;;;;;;0.00;0.00;;;;;;;10.64;100.00;99314.47;5113513;28;20031;-38
2023/10/28 07:56:29;;;;;;;0.00;0.00;;;;;;;10.65;100.00;99318.78;5111130;28;20024;-39
2023/10/28 07:58:58;;;;;;;0.00;0.00;;;;;;;10.61;100.00;99314.88;5112783;28;20027;-40
2023/10/28 08:01:23;;;;;;;0.00;0.00;;;;;;;10.61;100.00;99318.44;5112112;28;20027;-36
2023/10/28 08:03:51;;;;;;;0.00;0.00;;;;;;;10.66;100.00;99321.25;5112419;28;20043;-40
2023/10/28 08:06:17;;;;;;;0.00;0.00;;;;;;;10.70;100.00;99311.72;5113402;27;20084;-38
2023/10/28 08:08:43;;;;;;;0.00;0.00;;;;;;;10.76;100.00;99321.59;5117513;27;20430;-39
2023/10/28 08:11:08;;;;;;;0.00;0.00;;;;;;;10.74;100.00;99328.22;5119391;27;20032;-40
2023/10/28 08:13:37;;;;;;;0.00;0.00;;;;;;;10.76;100.00;99326.97;5117669;27;20111;-40
2023/10/28 08:16:03;;;;;;;0.00;0.00;;;;;;;10.76;100.00;99326.16;5120631;27;20114;-41
2023/10/28 08:18:31;;;;;;;0.00;0.00;;;;;;;10.74;100.00;99315.63;5120477;27;20023;-40
2023/10/28 08:20:57;;;;;;;0.00;0.00;;;;;;;10.74;100.00;99323.69;5115908;28;20269;-40
2023/10/28 08:23:22;;;;;;;0.00;0.00;;;;;;;10.68;100.00;99324.56;5114201;28;20031;-41
2023/10/28 08:25:48;;;;;;;0.00;0.00;;;;;;;10.72;100.00;99324.97;5110830;28;20066;-43
2023/10/28 08:28:13;;;;;;;0.00;0.00;;;;;;;10.75;100.00;99329.91;5110517;28;20487;-42
2023/10/28 08:30:38;;;;;;;0.00;0.00;;;;;;;10.77;100.00;99325.13;5110840;28;20038;-41
2023/10/28 08:33:04;;;;;;;0.00;0.00;;;;;;;10.78;100.00;99329.44;5110832;28;20023;-42
2023/10/28 08:35:29;;;;;;;0.00;0.00;;;;;;;10.78;100.00;99334.81;5108866;28;20032;-43
2023/10/28 08:37:55;;;;;;;0.00;0.00;;;;;;;10.80;100.00;99330.06;5110551;28;20051;-43
2023/10/28 08:40:20;;;;;;;0.00;0.00;;;;;;;10.80;100.00;99324.69;5111067;28;20023;-43
2023/10/28 08:42:45;;;;;;;0.00;0.00;;;;;;;10.81;100.00;99333.56;5110175;28;20024;-44
2023/10/28 08:45:11;;;;;;;0.00;0.00;;;;;;;10.83;100.00;99339.56;5110935;28;20026;-42
2023/10/28 08:47:40;;;;;;;0.00;0.00;;;;;;;10.80;100.00;99342.69;5095320;28;20047;-41
2023/10/28 08:50:09;;;;;;;0.00;0.00;;;;;;;10.83;100.00;99353.00;5114430;28;20039;-42
2023/10/28 08:52:39;;;;;;;0.00;0.00;;;;;;;10.81;100.00;99355.09;5113729;28;20072;-43
2023/10/28 08:55:10;;;;;;;0.00;0.00;;;;;;;10.85;100.00;99361.66;5112263;28;20059;-44
2023/10/28 08:57:36;;;;;;;0.00;0.00;;;;;;;10.82;100.00;99356.72;5090626;28;20523;-44
2023/10/28 09:00:06;;;;;;;0.00;0.00;;;;;;;10.79;100.00;99367.94;5090568;28;20024;-42
2023/10/28 09:02:33;;;;;;;0.00;0.00;;;;;;;10.79;100.00;99371.44;5090710;28;20185;-42
2023/10/28 09:04:58;;;;;;;0.00;0.00;;;;;;;10.78;100.00;99367.13;5090694;28;20706;-41
2023/10/28 09:07:23;;;;;;;0.00;0.00;;;;;;;10.80;100.00;99366.91;5090713;28;20032;-41
2023/10/28 09:10:00;;;;;;;0.00;0.00;;;;;;;10.82;100.00;99362.97;5090737;28;20023;-42
2023/10/28 09:12:25;;;;;;;0.00;0.00;;;;;;;10.87;100.00;99370.34;5090571;28;20030;-42
2023/10/28 09:14:50;;;;;;;0.00;0.00;;;;;;;10.93;100.00;99364.13;5091336;28;20035;-40
2023/10/28 09:17:20;;;;;;;0.00;0.00;;;;;;;10.93;100.00;99374.88;5089998;28;20463;-40
2023/10/28 09:19:46;;;;;;;0.00;0.00;;;;;;;10.93;100.00;99374.88;5091217;28;20384;-41
2023/10/28 09:22:11;;;;;;;0.00;0.00;;;;;;;10.98;100.00;99369.66;5091135;28;20120;-40
2023/10/28 09:24:38;;;;;;;0.00;0.00;;;;;;;11.03;100.00;99359.03;5093981;28;20064;-39
2023/10/28 09:27:04;;;;;;;0.00;0.00;;;;;;;11.08;100.00;99356.50;5098082;28;20723;-42
2023/10/28 09:29:30;;;;;;;0.00;0.00;;;;;;;11.15;100.00;99368.03;5097441;28;20048;-41
2023/10/28 09:32:05;;;;;;;0.00;0.00;;;;;;;11.23;100.00;99366.09;5096891;28;20032;-40
2023/10/28 09:34:31;;;;;;;0.00;0.00;;;;;;;11.24;100.00;99370.44;5095982;28;20101;-39
2023/10/28 09:36:57;;;;;;;0.00;0.00;;;;;;;11.24;100.00;99371.25;5095853;28;20454;-38
2023/10/28 09:39:23;;;;;;;0.00;0.00;;;;;;;11.21;100.00;99369.81;5095298;28;20108;-39
2023/10/28 09:41:51;;;;;;;0.00;0.00;;;;;;;11.15;100.00;99361.81;5095639;28;20043;-40
2023/10/28 09:44:16;;;;;;;0.00;0.00;;;;;;;11.21;100.00;99360.94;5110969;28;20119;-39
2023/10/28 09:46:45;;;;;;;0.00;0.00;;;;;;;11.17;100.00;99392.88;5076136;28;20048;-39
2023/10/28 09:49:11;;;;;;;0.00;0.00;;;;;;;11.20;100.00;99362.81;5112567;28;20065;-38
2023/10/28 09:51:37;;;;;;;0.00;0.00;;;;;;;11.20;100.00;99360.13;5077701;28;20077;-40
2023/10/28 09:54:05;;;;;;;0.00;0.00;;;;;;;11.21;100.00;99356.34;5112139;28;20032;-40
2023/10/28 09:56:34;;;;;;;0.00;0.00;;;;;;;11.25;100.00;99351.38;5098500;28;20056;-39
2023/10/28 09:59:19;;;;;;;0.00;0.00;;;;;;;11.36;100.00;99357.88;5097914;28;20103;-40
2023/10/28 10:01:48;;;;;;;0.00;0.00;;;;;;;11.34;100.00;99357.28;5080188;28;20034;-40
2023/10/28 10:04:25;;;;;;;0.00;0.00;;;;;;;11.38;100.00;99374.66;5097531;28;20044;-39
2023/10/28 10:06:51;;;;;;;0.00;0.00;;;;;;;11.37;100.00;99370.31;5076828;28;20024;-41
2023/10/28 10:09:18;;;;;;;0.00;0.00;;;;;;;11.41;100.00;99368.81;5110074;28;20023;-41
2023/10/28 10:11:43;;;;;;;0.00;0.00;;;;;;;11.42;100.00;99363.19;5107968;28;20031;-39
2023/10/28 10:14:10;;;;;;;0.00;0.00;;;;;;;11.39;100.00;99376.28;5114601;28;20040;-38
2023/10/28 10:17:03;;;;;;;0.00;0.00;;;;;;;11.42;100.00;99383.94;5116176;28;20413;-40
2023/10/28 10:19:33;;;;;;;0.00;0.00;;;;;;;11.47;100.00;99380.56;5116821;28;20110;-39
2023/10/28 10:22:02;;;;;;;0.00;0.00;;;;;;;11.47;100.00;99394.84;5117623;28;20381;-39
2023/10/28 10:24:28;;;;;;;0.00;0.00;;;;;;;11.52;100.00;99389.63;5116132;28;20035;-39
2023/10/28 10:26:58;;;;;;;0.00;0.00;;;;;;;11.54;100.00;99394.81;5116837;28;20032;-40
2023/10/28 10:29:28;;;;;;;0.00;0.00;;;;;;;11.56;100.00;99388.13;5116598;28;20419;-40
2023/10/28 10:31:57;;;;;;;0.00;0.00;;;;;;;11.77;100.00;99389.56;5116823;28;20023;-41
2023/10/28 10:34:33;;;;;;;0.00;0.00;;;;;;;11.73;100.00;99382.16;5119575;28;20307;-41
2023/10/28 10:37:00;;;;;;;0.00;0.00;;;;;;;11.81;100.00;99382.66;5115140;28;20073;-39
2023/10/28 10:39:26;;;;;;;0.00;0.00;;;;;;;11.84;100.00;99382.19;5120212;28;20020;-41
2023/10/28 10:41:55;;;;;;;0.00;0.00;;;;;;;11.86;100.00;99385.53;5117651;28;20442;-41
2023/10/28 10:44:36;;;;;;;0.00;0.00;;;;;;;11.84;100.00;99382.19;5118140;28;20023;-39
2023/10/28 10:47:02;;;;;;;0.00;0.00;;;;;;;11.82;100.00;99367.31;5117946;28;20036;-40
2023/10/28 10:49:30;;;;;;;0.00;0.00;;;;;;;11.82;100.00;99367.31;5115542;28;20058;-40
2023/10/28 10:51:56;;;;;;;0.00;0.00;;;;;;;11.98;100.00;99372.13;5116192;28;20020;-40
2023/10/28 10:54:28;;;;;;;0.00;0.00;;;;;;;11.93;100.00;99363.03;5098450;28;20032;-40
2023/10/28 10:56:53;;;;;;;0.03;0.00;;;;;;;11.93;100.00;99366.59;5116527;28;20019;-41
2023/10/28 10:59:19;;;;;;;0.00;0.00;;;;;;;11.88;100.00;99360.25;5115397;28;20024;-40
2023/10/28 11:01:46;;;;;;;0.00;0.00;;;;;;;11.85;100.00;99366.88;5114662;28;20061;-40
2023/10/28 11:04:11;;;;;;;0.00;0.00;;;;;;;11.88;100.00;99369.16;5114413;28;20154;-38
2023/10/28 11:06:37;;;;;;;0.00;0.00;;;;;;;11.88;100.00;99366.44;5095638;28;20042;-38
2023/10/28 11:09:06;;;;;;;0.00;0.00;;;;;;;11.90;100.00;99360.81;5113995;28;20019;-39
2023/10/28 11:11:38;;;;;;;0.00;0.00;;;;;;;11.97;100.00;99356.97;5113737;28;20035;-40
2023/10/28 11:14:04;;;;;;;0.00;0.00;;;;;;;12.15;100.00;99366.91;5112349;28;20058;-40
2023/10/28 11:16:31;;;;;;;0.00;0.00;;;;;;;12.28;100.00;99360.53;5113566;28;20035;-41
2023/10/28 11:18:56;;;;;;;0.00;0.00;;;;;;;12.49;100.00;99357.28;5112095;28;20020;-39
2023/10/28 11:21:23;;;;;;;0.00;0.00;;;;;;;12.62;100.00;99360.84;5113564;28;20034;-38
2023/10/28 11:23:48;;;;;;;0.00;0.00;;;;;;;12.72;100.00;99348.44;5098145;28;20028;-40
2023/10/28 11:26:20;;;;;;;0.00;0.00;;;;;;;12.87;100.00;99353.34;5113750;28;20119;-38